sensor_id;sensor_type;location;lat;lon;timestamp;pressure;altitude;pressure_sealevel;temperature;humidity
50682;BME280;36779;52.168;20.878;2023-09-08T00:00:25;101486.32;;;15.73;58.85
50682;BME280;36779;52.168;20.878;2023-09-08T00:03:17;101480.27;;;15.66;59.24
50682;BME280;36779;52.168;20.878;2023-09-08T00:05:49;101477.27;;;15.64;59.20
50682;BME280;36779;52.168;20.878;2023-09-08T00:08:21;101475.26;;;15.66;59.37
50682;BME280;36779;52.168;20.878;2023-09-08T00:10:54;101475.34;;;15.67;59.52
50682;BME280;36779;52.168;20.878;2023-09-08T00:13:28;101473.11;;;15.66;59.48
50682;BME280;36779;52.168;20.878;2023-09-08T00:16:00;101470.60;;;15.64;59.51
50682;BME280;36779;52.168;20.878;2023-09-08T00:18:32;101472.58;;;15.61;59.30
50682;BME280;36779;52.168;20.878;2023-09-08T00:21:05;101472.14;;;15.62;59.49
50682;BME280;36779;52.168;20.878;2023-09-08T00:23:37;101469.73;;;15.61;59.75
50682;BME280;36779;52.168;20.878;2023-09-08T00:26:09;101467.40;;;15.59;59.47
50682;BME280;36779;52.168;20.878;2023-09-08T00:28:42;101470.60;;;15.58;59.67
50682;BME280;36779;52.168;20.878;2023-09-08T00:31:14;101464.92;;;15.56;59.80
50682;BME280;36779;52.168;20.878;2023-09-08T00:33:47;101462.67;;;15.52;59.66
50682;BME280;36779;52.168;20.878;2023-09-08T00:36:19;101462.01;;;15.53;59.90
50682;BME280;36779;52.168;20.878;2023-09-08T00:38:51;101460.89;;;15.55;59.82
50682;BME280;36779;52.168;20.878;2023-09-08T00:41:23;101461.41;;;15.50;59.87
50682;BME280;36779;52.168;20.878;2023-09-08T00:43:56;101461.97;;;15.48;60.04
50682;BME280;36779;52.168;20.878;2023-09-08T00:46:28;101459.55;;;15.51;59.98
50682;BME280;36779;52.168;20.878;2023-09-08T00:49:02;101462.07;;;15.46;59.73
50682;BME280;36779;52.168;20.878;2023-09-08T00:51:34;101462.06;;;15.39;60.09
50682;BME280;36779;52.168;20.878;2023-09-08T00:54:09;101462.50;;;15.40;60.23
50682;BME280;36779;52.168;20.878;2023-09-08T00:56:41;101466.87;;;15.37;60.04
50682;BME280;36779;52.168;20.878;2023-09-08T00:59:14;101468.17;;;15.28;60.19
50682;BME280;36779;52.168;20.878;2023-09-08T01:01:46;101465.39;;;15.20;60.21
50682;BME280;36779;52.168;20.878;2023-09-08T01:04:18;101467.19;;;15.15;60.10
50682;BME280;36779;52.168;20.878;2023-09-08T01:06:51;101469.46;;;15.12;60.08
50682;BME280;36779;52.168;20.878;2023-09-08T01:09:24;101470.20;;;15.14;60.24
50682;BME280;36779;52.168;20.878;2023-09-08T01:11:56;101466.83;;;15.20;60.56
50682;BME280;36779;52.168;20.878;2023-09-08T01:14:32;101465.32;;;15.29;60.50
50682;BME280;36779;52.168;20.878;2023-09-08T01:17:05;101463.36;;;15.33;60.67
50682;BME280;36779;52.168;20.878;2023-09-08T01:19:38;101461.96;;;15.37;60.63
50682;BME280;36779;52.168;20.878;2023-09-08T01:25:22;101455.66;;;15.44;60.75
50682;BME280;36779;52.168;20.878;2023-09-08T01:27:58;101456.82;;;15.46;60.78
50682;BME280;36779;52.168;20.878;2023-09-08T01:30:32;101454.78;;;15.50;60.89
50682;BME280;36779;52.168;20.878;2023-09-08T01:33:08;101449.77;;;15.53;61.02
50682;BME280;36779;52.168;20.878;2023-09-08T01:35:40;101450.85;;;15.57;60.90
50682;BME280;36779;52.168;20.878;2023-09-08T01:38:12;101449.61;;;15.60;61.06
50682;BME280;36779;52.168;20.878;2023-09-08T01:40:44;101447.26;;;15.60;61.16
50682;BME280;36779;52.168;20.878;2023-09-08T01:43:16;101445.14;;;15.60;60.96
50682;BME280;36779;52.168;20.878;2023-09-08T01:45:48;101445.88;;;15.60;60.99
50682;BME280;36779;52.168;20.878;2023-09-08T01:48:21;101447.58;;;15.62;61.21
50682;BME280;36779;52.168;20.878;2023-09-08T01:50:53;101450.45;;;15.63;61.13
50682;BME280;36779;52.168;20.878;2023-09-08T01:53:25;101444.79;;;15.61;61.05
50682;BME280;36779;52.168;20.878;2023-09-08T01:55:58;101443.65;;;15.59;60.98
50682;BME280;36779;52.168;20.878;2023-09-08T01:58:30;101447.10;;;15.55;61.21
50682;BME280;36779;52.168;20.878;2023-09-08T02:01:04;101445.54;;;15.51;61.17
50682;BME280;36779;52.168;20.878;2023-09-08T02:03:38;101443.06;;;15.48;61.08
50682;BME280;36779;52.168;20.878;2023-09-08T02:06:10;101439.77;;;15.48;61.07
50682;BME280;36779;52.168;20.878;2023-09-08T02:08:42;101443.09;;;15.52;61.27
50682;BME280;36779;52.168;20.878;2023-09-08T02:11:14;101439.05;;;15.58;61.48
50682;BME280;36779;52.168;20.878;2023-09-08T02:13:47;101437.58;;;15.64;61.61
50682;BME280;36779;52.168;20.878;2023-09-08T02:16:19;101437.50;;;15.68;61.64
50682;BME280;36779;52.168;20.878;2023-09-08T02:18:53;101438.62;;;15.59;61.08
50682;BME280;36779;52.168;20.878;2023-09-08T02:21:26;101438.09;;;15.47;61.08
50682;BME280;36779;52.168;20.878;2023-09-08T02:23:59;101438.13;;;15.42;61.14
50682;BME280;36779;52.168;20.878;2023-09-08T02:26:31;101437.32;;;15.38;61.48
50682;BME280;36779;52.168;20.878;2023-09-08T02:29:04;101435.84;;;15.32;61.29
50682;BME280;36779;52.168;20.878;2023-09-08T02:31:37;101436.61;;;15.25;61.33
50682;BME280;36779;52.168;20.878;2023-09-08T02:34:10;101436.57;;;15.17;61.14
50682;BME280;36779;52.168;20.878;2023-09-08T02:36:44;101433.39;;;15.13;61.35
50682;BME280;36779;52.168;20.878;2023-09-08T02:39:20;101427.17;;;15.16;61.48
50682;BME280;36779;52.168;20.878;2023-09-08T02:41:55;101424.05;;;15.19;61.46
50682;BME280;36779;52.168;20.878;2023-09-08T02:44:27;101425.67;;;15.17;61.53
50682;BME280;36779;52.168;20.878;2023-09-08T02:47:00;101420.82;;;15.18;61.62
50682;BME280;36779;52.168;20.878;2023-09-08T02:49:32;101418.67;;;15.22;61.71
50682;BME280;36779;52.168;20.878;2023-09-08T02:52:05;101417.47;;;15.21;61.81
50682;BME280;36779;52.168;20.878;2023-09-08T02:54:38;101413.20;;;15.18;61.62
50682;BME280;36779;52.168;20.878;2023-09-08T02:57:10;101416.17;;;15.17;61.76
50682;BME280;36779;52.168;20.878;2023-09-08T02:59:43;101413.02;;;15.19;61.82
50682;BME280;36779;52.168;20.878;2023-09-08T03:02:20;101413.95;;;15.19;61.77
50682;BME280;36779;52.168;20.878;2023-09-08T03:04:53;101421.77;;;15.15;61.46
50682;BME280;36779;52.168;20.878;2023-09-08T03:07:27;101418.61;;;15.13;61.55
50682;BME280;36779;52.168;20.878;2023-09-08T03:10:01;101414.14;;;15.16;61.73
50682;BME280;36779;52.168;20.878;2023-09-08T03:12:35;101412.16;;;15.17;61.94
50682;BME280;36779;52.168;20.878;2023-09-08T03:15:08;101408.86;;;15.20;62.05
50682;BME280;36779;52.168;20.878;2023-09-08T03:17:41;101408.20;;;15.27;62.37
50682;BME280;36779;52.168;20.878;2023-09-08T03:20:14;101405.39;;;15.34;62.24
50682;BME280;36779;52.168;20.878;2023-09-08T03:22:46;101399.88;;;15.38;62.10
50682;BME280;36779;52.168;20.878;2023-09-08T03:25:18;101402.63;;;15.42;62.35
50682;BME280;36779;52.168;20.878;2023-09-08T03:27:50;101400.89;;;15.43;62.25
50682;BME280;36779;52.168;20.878;2023-09-08T03:30:22;101396.44;;;15.46;62.18
50682;BME280;36779;52.168;20.878;2023-09-08T03:32:54;101392.88;;;15.48;62.47
50682;BME280;36779;52.168;20.878;2023-09-08T03:35:28;101395.70;;;15.52;62.40
50682;BME280;36779;52.168;20.878;2023-09-08T03:38:00;101402.12;;;15.53;62.23
50682;BME280;36779;52.168;20.878;2023-09-08T03:40:32;101401.54;;;15.53;62.54
50682;BME280;36779;52.168;20.878;2023-09-08T03:43:04;101399.55;;;15.57;62.30
50682;BME280;36779;52.168;20.878;2023-09-08T03:45:37;101395.55;;;15.58;62.37
50682;BME280;36779;52.168;20.878;2023-09-08T03:48:12;101395.73;;;15.54;62.46
50682;BME280;36779;52.168;20.878;2023-09-08T03:50:45;101392.04;;;15.47;62.11
50682;BME280;36779;52.168;20.878;2023-09-08T03:53:17;101390.67;;;15.42;62.29
50682;BME280;36779;52.168;20.878;2023-09-08T03:55:50;101396.58;;;15.39;62.31
50682;BME280;36779;52.168;20.878;2023-09-08T03:58:23;101395.34;;;15.42;62.54
50682;BME280;36779;52.168;20.878;2023-09-08T04:00:56;101398.63;;;15.41;62.55
50682;BME280;36779;52.168;20.878;2023-09-08T04:03:28;101403.96;;;15.38;62.29
50682;BME280;36779;52.168;20.878;2023-09-08T04:06:01;101405.89;;;15.32;62.35
50682;BME280;36779;52.168;20.878;2023-09-08T04:08:34;101403.23;;;15.25;62.30
50682;BME280;36779;52.168;20.878;2023-09-08T04:11:07;101397.36;;;15.22;62.54
50682;BME280;36779;52.168;20.878;2023-09-08T04:13:40;101399.31;;;15.20;62.60
50682;BME280;36779;52.168;20.878;2023-09-08T04:16:12;101400.38;;;15.22;62.74
50682;BME280;36779;52.168;20.878;2023-09-08T04:18:45;101398.84;;;15.23;62.43
50682;BME280;36779;52.168;20.878;2023-09-08T04:21:17;101394.61;;;15.27;62.53
50682;BME280;36779;52.168;20.878;2023-09-08T04:23:49;101394.73;;;15.34;62.66
50682;BME280;36779;52.168;20.878;2023-09-08T04:26:22;101397.30;;;15.39;62.72
50682;BME280;36779;52.168;20.878;2023-09-08T04:28:54;101396.88;;;15.44;62.90
50682;BME280;36779;52.168;20.878;2023-09-08T04:31:28;101400.73;;;15.48;63.02
50682;BME280;36779;52.168;20.878;2023-09-08T04:34:01;101397.65;;;15.50;62.79
50682;BME280;36779;52.168;20.878;2023-09-08T04:36:34;101401.17;;;15.57;63.03
50682;BME280;36779;52.168;20.878;2023-09-08T04:39:06;101401.33;;;15.64;62.97
50682;BME280;36779;52.168;20.878;2023-09-08T04:41:42;101397.85;;;15.70;63.18
50682;BME280;36779;52.168;20.878;2023-09-08T04:44:14;101400.97;;;15.75;62.92
50682;BME280;36779;52.168;20.878;2023-09-08T04:46:46;101396.67;;;15.79;62.95
50682;BME280;36779;52.168;20.878;2023-09-08T04:49:19;101393.48;;;15.82;63.02
50682;BME280;36779;52.168;20.878;2023-09-08T04:51:52;101391.36;;;15.86;63.00
50682;BME280;36779;52.168;20.878;2023-09-08T04:54:26;101389.67;;;15.88;63.09
50682;BME280;36779;52.168;20.878;2023-09-08T04:57:00;101389.83;;;15.88;62.89
50682;BME280;36779;52.168;20.878;2023-09-08T04:59:52;101390.27;;;15.91;63.00
50682;BME280;36779;52.168;20.878;2023-09-08T05:02:25;101391.85;;;15.91;63.03
50682;BME280;36779;52.168;20.878;2023-09-08T05:04:58;101389.17;;;15.90;63.00
50682;BME280;36779;52.168;20.878;2023-09-08T05:07:32;101388.81;;;15.91;62.95
50682;BME280;36779;52.168;20.878;2023-09-08T05:10:05;101387.50;;;15.94;63.18
50682;BME280;36779;52.168;20.878;2023-09-08T05:12:39;101388.30;;;15.99;62.96
50682;BME280;36779;52.168;20.878;2023-09-08T05:15:12;101388.48;;;16.13;63.27
50682;BME280;36779;52.168;20.878;2023-09-08T05:17:50;101386.09;;;16.45;63.56
50682;BME280;36779;52.168;20.878;2023-09-08T05:20:24;101382.67;;;16.73;63.64
50682;BME280;36779;52.168;20.878;2023-09-08T05:22:56;101381.45;;;16.96;63.64
50682;BME280;36779;52.168;20.878;2023-09-08T05:25:29;101380.02;;;17.19;63.56
50682;BME280;36779;52.168;20.878;2023-09-08T05:28:02;101378.50;;;17.24;63.28
50682;BME280;36779;52.168;20.878;2023-09-08T05:30:34;101379.45;;;17.27;63.28
50682;BME280;36779;52.168;20.878;2023-09-08T05:33:07;101381.14;;;17.31;63.28
50682;BME280;36779;52.168;20.878;2023-09-08T05:35:39;101377.02;;;17.33;63.17
50682;BME280;36779;52.168;20.878;2023-09-08T05:38:12;101382.02;;;17.34;63.07
50682;BME280;36779;52.168;20.878;2023-09-08T05:40:45;101382.39;;;17.36;63.16
50682;BME280;36779;52.168;20.878;2023-09-08T05:43:18;101383.28;;;17.38;63.22
50682;BME280;36779;52.168;20.878;2023-09-08T05:45:50;101382.04;;;17.38;63.03
50682;BME280;36779;52.168;20.878;2023-09-08T05:48:23;101380.36;;;17.40;63.09
50682;BME280;36779;52.168;20.878;2023-09-08T05:50:56;101381.80;;;17.45;63.15
50682;BME280;36779;52.168;20.878;2023-09-08T05:53:29;101379.95;;;17.50;63.32
50682;BME280;36779;52.168;20.878;2023-09-08T05:56:02;101381.45;;;17.53;63.27
50682;BME280;36779;52.168;20.878;2023-09-08T05:58:34;101383.09;;;17.59;63.31
50682;BME280;36779;52.168;20.878;2023-09-08T06:01:07;101383.85;;;17.63;63.26
50682;BME280;36779;52.168;20.878;2023-09-08T06:03:40;101378.98;;;17.68;63.32
50682;BME280;36779;52.168;20.878;2023-09-08T06:06:13;101377.75;;;17.74;63.29
50682;BME280;36779;52.168;20.878;2023-09-08T06:08:45;101377.57;;;17.83;63.38
50682;BME280;36779;52.168;20.878;2023-09-08T06:11:18;101378.19;;;17.91;63.35
50682;BME280;36779;52.168;20.878;2023-09-08T06:13:50;101376.85;;;17.96;63.14
50682;BME280;36779;52.168;20.878;2023-09-08T06:16:23;101379.95;;;18.02;63.23
50682;BME280;36779;52.168;20.878;2023-09-08T06:18:56;101381.51;;;18.13;63.48
50682;BME280;36779;52.168;20.878;2023-09-08T06:21:29;101379.61;;;18.24;63.49
50682;BME280;36779;52.168;20.878;2023-09-08T06:24:02;101378.95;;;18.35;63.47
50682;BME280;36779;52.168;20.878;2023-09-08T06:26:35;101380.71;;;18.50;63.32
50682;BME280;36779;52.168;20.878;2023-09-08T06:29:07;101376.10;;;18.67;63.45
50682;BME280;36779;52.168;20.878;2023-09-08T06:31:39;101373.95;;;18.87;63.46
50682;BME280;36779;52.168;20.878;2023-09-08T06:34:11;101375.62;;;19.19;63.89
50682;BME280;36779;52.168;20.878;2023-09-08T06:36:43;101373.87;;;19.92;64.58
50682;BME280;36779;52.168;20.878;2023-09-08T06:39:16;101372.72;;;20.79;64.92
50682;BME280;36779;52.168;20.878;2023-09-08T06:41:48;101373.05;;;21.42;64.22
50682;BME280;36779;52.168;20.878;2023-09-08T06:44:22;101374.27;;;21.69;63.71
50682;BME280;36779;52.168;20.878;2023-09-08T06:46:54;101377.48;;;21.86;63.58
50682;BME280;36779;52.168;20.878;2023-09-08T06:49:27;101377.44;;;22.24;63.44
50682;BME280;36779;52.168;20.878;2023-09-08T06:52:00;101382.25;;;22.52;63.26
50682;BME280;36779;52.168;20.878;2023-09-08T06:54:32;101382.72;;;22.78;63.05
50682;BME280;36779;52.168;20.878;2023-09-08T06:57:04;101381.52;;;22.99;62.59
50682;BME280;36779;52.168;20.878;2023-09-08T06:59:37;101375.48;;;23.10;62.22
50682;BME280;36779;52.168;20.878;2023-09-08T07:02:09;101376.98;;;23.04;61.75
50682;BME280;36779;52.168;20.878;2023-09-08T07:04:42;101378.55;;;22.93;61.56
50682;BME280;36779;52.168;20.878;2023-09-08T07:07:14;101378.34;;;22.92;61.60
50682;BME280;36779;52.168;20.878;2023-09-08T07:09:46;101375.91;;;22.95;61.38
50682;BME280;36779;52.168;20.878;2023-09-08T07:12:18;101376.11;;;22.86;61.07
50682;BME280;36779;52.168;20.878;2023-09-08T07:14:50;101372.73;;;22.78;61.13
50682;BME280;36779;52.168;20.878;2023-09-08T07:17:23;101370.31;;;22.69;60.98
50682;BME280;36779;52.168;20.878;2023-09-08T07:19:55;101371.95;;;22.63;61.02
50682;BME280;36779;52.168;20.878;2023-09-08T07:22:30;101367.70;;;22.59;60.99
50682;BME280;36779;52.168;20.878;2023-09-08T07:25:02;101364.64;;;22.69;61.18
50682;BME280;36779;52.168;20.878;2023-09-08T07:27:35;101366.64;;;22.83;61.19
50682;BME280;36779;52.168;20.878;2023-09-08T07:30:10;101371.30;;;22.87;60.99
50682;BME280;36779;52.168;20.878;2023-09-08T07:32:43;101372.54;;;22.89;60.89
50682;BME280;36779;52.168;20.878;2023-09-08T07:35:16;101371.48;;;22.89;60.69
50682;BME280;36779;52.168;20.878;2023-09-08T07:37:51;101370.36;;;22.87;60.64
50682;BME280;36779;52.168;20.878;2023-09-08T07:40:23;101373.26;;;22.87;60.56
50682;BME280;36779;52.168;20.878;2023-09-08T07:42:55;101372.34;;;22.81;60.42
50682;BME280;36779;52.168;20.878;2023-09-08T07:45:28;101372.98;;;22.80;60.49
50682;BME280;36779;52.168;20.878;2023-09-08T07:48:00;101370.28;;;22.81;60.41
50682;BME280;36779;52.168;20.878;2023-09-08T07:50:34;101374.73;;;22.79;60.39
50682;BME280;36779;52.168;20.878;2023-09-08T07:53:06;101372.11;;;22.77;60.16
50682;BME280;36779;52.168;20.878;2023-09-08T07:55:38;101370.64;;;22.79;60.31
50682;BME280;36779;52.168;20.878;2023-09-08T07:58:10;101367.77;;;22.91;60.32
50682;BME280;36779;52.168;20.878;2023-09-08T08:00:42;101367.08;;;23.01;60.30
50682;BME280;36779;52.168;20.878;2023-09-08T08:03:14;101363.27;;;23.26;60.49
50682;BME280;36779;52.168;20.878;2023-09-08T08:05:47;101365.50;;;23.48;60.42
50682;BME280;36779;52.168;20.878;2023-09-08T08:08:19;101364.20;;;23.65;60.35
50682;BME280;36779;52.168;20.878;2023-09-08T08:10:51;101365.91;;;23.89;60.39
50682;BME280;36779;52.168;20.878;2023-09-08T08:13:23;101363.28;;;24.07;60.26
50682;BME280;36779;52.168;20.878;2023-09-08T08:15:55;101361.08;;;24.25;60.23
50682;BME280;36779;52.168;20.878;2023-09-08T08:18:27;101361.00;;;24.39;60.28
50682;BME280;36779;52.168;20.878;2023-09-08T08:21:00;101358.79;;;24.66;60.35
50682;BME280;36779;52.168;20.878;2023-09-08T08:23:34;101359.21;;;25.10;60.39
50682;BME280;36779;52.168;20.878;2023-09-08T08:26:07;101362.44;;;25.57;60.15
50682;BME280;36779;52.168;20.878;2023-09-08T08:28:39;101362.38;;;26.01;59.92
50682;BME280;36779;52.168;20.878;2023-09-08T08:31:11;101364.32;;;26.50;59.80
50682;BME280;36779;52.168;20.878;2023-09-08T08:33:44;101362.26;;;26.90;59.42
50682;BME280;36779;52.168;20.878;2023-09-08T08:36:16;101360.61;;;27.22;58.83
50682;BME280;36779;52.168;20.878;2023-09-08T08:38:48;101359.39;;;27.41;58.46
50682;BME280;36779;52.168;20.878;2023-09-08T08:41:20;101360.78;;;27.69;58.31
50682;BME280;36779;52.168;20.878;2023-09-08T08:43:53;101358.99;;;27.97;57.89
50682;BME280;36779;52.168;20.878;2023-09-08T08:46:27;101359.92;;;28.31;57.75
50682;BME280;36779;52.168;20.878;2023-09-08T08:49:03;101359.09;;;28.62;57.33
50682;BME280;36779;52.168;20.878;2023-09-08T08:51:36;101359.86;;;28.89;56.98
50682;BME280;36779;52.168;20.878;2023-09-08T08:54:10;101353.64;;;29.18;56.75
50682;BME280;36779;52.168;20.878;2023-09-08T08:56:44;101353.33;;;29.45;56.57
50682;BME280;36779;52.168;20.878;2023-09-08T08:59:17;101352.42;;;29.74;56.46
50682;BME280;36779;52.168;20.878;2023-09-08T09:01:50;101347.13;;;30.03;56.14
50682;BME280;36779;52.168;20.878;2023-09-08T09:04:23;101347.90;;;30.17;55.57
50682;BME280;36779;52.168;20.878;2023-09-08T09:06:56;101349.46;;;30.37;55.67
50682;BME280;36779;52.168;20.878;2023-09-08T09:09:29;101344.44;;;30.57;55.41
50682;BME280;36779;52.168;20.878;2023-09-08T09:12:02;101342.58;;;30.61;54.90
50682;BME280;36779;52.168;20.878;2023-09-08T09:14:34;101343.23;;;30.58;54.59
50682;BME280;36779;52.168;20.878;2023-09-08T09:17:12;101341.63;;;30.51;54.48
50682;BME280;36779;52.168;20.878;2023-09-08T09:19:45;101341.63;;;30.55;54.21
50682;BME280;36779;52.168;20.878;2023-09-08T09:22:21;101342.20;;;30.41;53.91
50682;BME280;36779;52.168;20.878;2023-09-08T09:24:58;101339.48;;;30.49;54.25
50682;BME280;36779;52.168;20.878;2023-09-08T09:27:32;101335.58;;;30.52;53.57
50682;BME280;36779;52.168;20.878;2023-09-08T09:30:08;101335.55;;;30.42;53.45
50682;BME280;36779;52.168;20.878;2023-09-08T09:32:40;101330.66;;;30.37;53.28
50682;BME280;36779;52.168;20.878;2023-09-08T09:35:13;101327.20;;;30.44;53.43
50682;BME280;36779;52.168;20.878;2023-09-08T09:37:45;101325.90;;;30.62;53.42
50682;BME280;36779;52.168;20.878;2023-09-08T09:40:19;101324.98;;;30.80;53.44
50682;BME280;36779;52.168;20.878;2023-09-08T09:42:51;101319.70;;;31.01;53.31
50682;BME280;36779;52.168;20.878;2023-09-08T09:45:25;101318.05;;;31.19;53.17
50682;BME280;36779;52.168;20.878;2023-09-08T09:47:58;101315.84;;;31.31;52.96
50682;BME280;36779;52.168;20.878;2023-09-08T09:50:32;101312.67;;;31.44;52.66
50682;BME280;36779;52.168;20.878;2023-09-08T09:53:10;101316.39;;;31.58;52.59
50682;BME280;36779;52.168;20.878;2023-09-08T09:55:45;101314.70;;;31.51;52.04
50682;BME280;36779;52.168;20.878;2023-09-08T09:58:17;101312.77;;;31.48;52.01
50682;BME280;36779;52.168;20.878;2023-09-08T10:00:51;101308.80;;;31.48;51.72
50682;BME280;36779;52.168;20.878;2023-09-08T10:03:27;101306.30;;;31.32;51.04
50682;BME280;36779;52.168;20.878;2023-09-08T10:06:00;101306.05;;;31.05;50.98
50682;BME280;36779;52.168;20.878;2023-09-08T10:08:35;101305.13;;;30.88;50.84
50682;BME280;36779;52.168;20.878;2023-09-08T10:11:08;101304.92;;;30.87;50.81
50682;BME280;36779;52.168;20.878;2023-09-08T10:13:47;101299.35;;;30.83;50.60
50682;BME280;36779;52.168;20.878;2023-09-08T10:16:22;101296.65;;;30.83;50.47
50682;BME280;36779;52.168;20.878;2023-09-08T10:18:58;101299.05;;;30.72;50.11
50682;BME280;36779;52.168;20.878;2023-09-08T10:21:31;101294.80;;;30.54;49.94
50682;BME280;36779;52.168;20.878;2023-09-08T10:24:12;101294.82;;;30.27;49.76
50682;BME280;36779;52.168;20.878;2023-09-08T10:26:50;101295.88;;;30.02;49.72
50682;BME280;36779;52.168;20.878;2023-09-08T10:29:24;101292.27;;;29.89;49.70
50682;BME280;36779;52.168;20.878;2023-09-08T10:31:56;101289.81;;;29.82;49.60
50682;BME280;36779;52.168;20.878;2023-09-08T10:34:30;101289.91;;;29.64;49.40
50682;BME280;36779;52.168;20.878;2023-09-08T10:37:04;101291.56;;;29.39;49.20
50682;BME280;36779;52.168;20.878;2023-09-08T10:39:49;101292.77;;;29.26;49.38
50682;BME280;36779;52.168;20.878;2023-09-08T10:42:25;101290.85;;;29.20;49.26
50682;BME280;36779;52.168;20.878;2023-09-08T10:45:01;101286.40;;;29.12;49.25
50682;BME280;36779;52.168;20.878;2023-09-08T10:47:56;101285.40;;;29.10;49.31
50682;BME280;36779;52.168;20.878;2023-09-08T10:50:35;101282.35;;;28.93;49.09
50682;BME280;36779;52.168;20.878;2023-09-08T10:53:18;101278.88;;;28.92;49.40
50682;BME280;36779;52.168;20.878;2023-09-08T10:55:53;101276.02;;;29.10;49.45
50682;BME280;36779;52.168;20.878;2023-09-08T10:58:50;101273.21;;;29.19;49.29
50682;BME280;36779;52.168;20.878;2023-09-08T11:01:23;101268.08;;;29.34;49.36
50682;BME280;36779;52.168;20.878;2023-09-08T11:04:00;101268.48;;;29.40;49.03
50682;BME280;36779;52.168;20.878;2023-09-08T11:06:39;101261.89;;;29.26;48.67
50682;BME280;36779;52.168;20.878;2023-09-08T11:09:12;101260.58;;;29.11;48.68
50682;BME280;36779;52.168;20.878;2023-09-08T11:11:45;101259.89;;;29.04;48.72
50682;BME280;36779;52.168;20.878;2023-09-08T11:14:17;101258.43;;;29.09;48.98
50682;BME280;36779;52.168;20.878;2023-09-08T11:16:49;101254.72;;;29.21;48.93
50682;BME280;36779;52.168;20.878;2023-09-08T11:19:22;101253.22;;;29.27;48.85
50682;BME280;36779;52.168;20.878;2023-09-08T11:21:54;101251.35;;;29.27;48.76
50682;BME280;36779;52.168;20.878;2023-09-08T11:24:28;101247.59;;;29.33;48.76
50682;BME280;36779;52.168;20.878;2023-09-08T11:27:00;101248.50;;;29.37;48.60
50682;BME280;36779;52.168;20.878;2023-09-08T11:29:34;101246.25;;;29.29;48.31
50682;BME280;36779;52.168;20.878;2023-09-08T11:32:08;101245.79;;;29.23;48.09
50682;BME280;36779;52.168;20.878;2023-09-08T11:34:40;101244.11;;;29.20;48.08
50682;BME280;36779;52.168;20.878;2023-09-08T11:37:13;101243.19;;;29.30;48.47
50682;BME280;36779;52.168;20.878;2023-09-08T11:39:47;101238.46;;;29.53;48.46
50682;BME280;36779;52.168;20.878;2023-09-08T11:42:19;101237.75;;;29.61;48.28
50682;BME280;36779;52.168;20.878;2023-09-08T11:44:52;101236.04;;;29.61;48.11
50682;BME280;36779;52.168;20.878;2023-09-08T11:47:26;101232.45;;;29.47;47.84
50682;BME280;36779;52.168;20.878;2023-09-08T11:49:59;101231.46;;;29.38;47.77
50682;BME280;36779;52.168;20.878;2023-09-08T11:52:31;101231.54;;;29.40;48.08
50682;BME280;36779;52.168;20.878;2023-09-08T11:55:04;101232.87;;;29.53;48.04
50682;BME280;36779;52.168;20.878;2023-09-08T11:57:38;101229.70;;;29.64;48.03
50682;BME280;36779;52.168;20.878;2023-09-08T12:00:12;101233.28;;;29.58;47.45
50682;BME280;36779;52.168;20.878;2023-09-08T12:02:47;101229.60;;;29.25;47.22
50682;BME280;36779;52.168;20.878;2023-09-08T12:05:24;101224.40;;;29.08;47.16
50682;BME280;36779;52.168;20.878;2023-09-08T12:07:58;101221.95;;;29.15;47.44
50682;BME280;36779;52.168;20.878;2023-09-08T12:10:30;101219.33;;;29.15;47.28
50682;BME280;36779;52.168;20.878;2023-09-08T12:13:02;101215.35;;;29.11;47.32
50682;BME280;36779;52.168;20.878;2023-09-08T12:15:36;101215.73;;;29.13;47.42
50682;BME280;36779;52.168;20.878;2023-09-08T12:18:11;101211.05;;;29.16;47.23
50682;BME280;36779;52.168;20.878;2023-09-08T12:20:44;101212.48;;;29.08;47.04
50682;BME280;36779;52.168;20.878;2023-09-08T12:23:21;101211.96;;;28.92;46.93
50682;BME280;36779;52.168;20.878;2023-09-08T12:25:56;101212.45;;;28.74;46.90
50682;BME280;36779;52.168;20.878;2023-09-08T12:28:31;101209.40;;;28.54;46.69
50682;BME280;36779;52.168;20.878;2023-09-08T12:31:04;101206.70;;;28.31;46.56
50682;BME280;36779;52.168;20.878;2023-09-08T12:33:37;101202.70;;;28.13;46.71
50682;BME280;36779;52.168;20.878;2023-09-08T12:36:16;101203.36;;;28.07;46.89
50682;BME280;36779;52.168;20.878;2023-09-08T12:38:53;101194.90;;;28.18;47.06
50682;BME280;36779;52.168;20.878;2023-09-08T12:41:26;101196.10;;;28.28;47.05
50682;BME280;36779;52.168;20.878;2023-09-08T12:43:59;101197.66;;;28.32;46.96
50682;BME280;36779;52.168;20.878;2023-09-08T12:46:32;101188.45;;;28.39;47.06
50682;BME280;36779;52.168;20.878;2023-09-08T12:49:06;101189.86;;;28.53;47.14
50682;BME280;36779;52.168;20.878;2023-09-08T12:51:40;101184.14;;;28.66;47.02
50682;BME280;36779;52.168;20.878;2023-09-08T12:54:12;101180.77;;;28.69;46.92
50682;BME280;36779;52.168;20.878;2023-09-08T12:56:44;101185.95;;;28.73;47.01
50682;BME280;36779;52.168;20.878;2023-09-08T12:59:17;101184.96;;;28.83;46.96
50682;BME280;36779;52.168;20.878;2023-09-08T13:01:49;101181.83;;;28.91;46.94
50682;BME280;36779;52.168;20.878;2023-09-08T13:04:21;101183.63;;;28.90;46.80
50682;BME280;36779;52.168;20.878;2023-09-08T13:06:54;101180.58;;;28.82;46.67
50682;BME280;36779;52.168;20.878;2023-09-08T13:09:28;101174.00;;;28.75;46.56
50682;BME280;36779;52.168;20.878;2023-09-08T13:12:00;101172.92;;;28.70;46.43
50682;BME280;36779;52.168;20.878;2023-09-08T13:14:32;101172.45;;;28.50;46.21